Time;durP1;ratioP1;P1;durP2;ratioP2;P2;SDS_P1;SDS_P2;PMS_P1;PMS_P2;Temp;Humidity;BMP_temperature;BMP_pressure;BME280_temperature;BME280_humidity;BME280_pressure;Samples;Min_cycle;Max_cycle;Signal;HPM_P1;HPM_P2
2021/07/07 00:00:01;;;;;;;1.00;0.90;;;;;;;;;;5034285;28;20219;-47
2021/07/07 00:02:27;;;;;;;2.47;0.90;;;;;;;;;;5034564;28;20344;-47
2021/07/07 00:04:53;;;;;;;1.65;0.98;;;;;;;;;;5034075;28;20466;-47
2021/07/07 00:07:19;;;;;;;1.67;0.98;;;;;;;;;;5033237;28;20211;-47
2021/07/07 00:09:45;;;;;;;0.82;0.80;;;;;;;;;;5026526;28;20188;-47
2021/07/07 00:12:12;;;;;;;2.42;0.70;;;;;;;;;;5029012;28;20184;-47
2021/07/07 00:14:38;;;;;;;1.52;1.02;;;;;;;;;;5034652;28;20208;-48
2021/07/07 00:17:04;;;;;;;1.65;0.70;;;;;;;;;;5033690;28;20202;-47
2021/07/07 00:19:30;;;;;;;1.33;0.90;;;;;;;;;;5034069;28;20507;-47
2021/07/07 00:21:58;;;;;;;0.80;0.80;;;;;;;;;;5034192;28;20259;-47
2021/07/07 00:24:25;;;;;;;1.33;0.82;;;;;;;;;;5033867;28;20171;-47
2021/07/07 00:26:50;;;;;;;1.25;1.00;;;;;;;;;;5033771;28;20176;-47
2021/07/07 00:29:17;;;;;;;1.63;0.80;;;;;;;;;;5033919;28;20527;-47
2021/07/07 00:31:43;;;;;;;0.80;0.77;;;;;;;;;;5034114;28;20246;-47
2021/07/07 00:34:09;;;;;;;1.50;0.90;;;;;;;;;;5034124;28;20653;-47
2021/07/07 00:36:35;;;;;;;0.85;0.70;;;;;;;;;;5033816;28;20259;-47
2021/07/07 00:39:01;;;;;;;1.92;1.10;;;;;;;;;;5033943;28;20428;-47
2021/07/07 00:41:27;;;;;;;0.80;0.80;;;;;;;;;;5032383;28;20606;-47
2021/07/07 00:43:53;;;;;;;1.55;0.80;;;;;;;;;;5037209;28;20183;-47
2021/07/07 00:46:19;;;;;;;0.80;0.75;;;;;;;;;;5037158;28;20483;-47
2021/07/07 00:48:46;;;;;;;2.38;0.93;;;;;;;;;;5038180;28;20186;-47
2021/07/07 00:51:13;;;;;;;0.60;0.60;;;;;;;;;;5038008;28;20160;-47
2021/07/07 00:53:40;;;;;;;1.75;0.90;;;;;;;;;;5037499;28;20187;-47
2021/07/07 00:56:06;;;;;;;1.05;0.90;;;;;;;;;;5030776;28;20168;-47
2021/07/07 00:58:32;;;;;;;1.45;0.80;;;;;;;;;;5022430;28;21483;-47
2021/07/07 01:00:58;;;;;;;0.75;0.70;;;;;;;;;;5037185;28;20195;-47
2021/07/07 01:03:24;;;;;;;1.90;0.88;;;;;;;;;;5037893;28;20179;-47
2021/07/07 01:05:50;;;;;;;1.48;0.90;;;;;;;;;;5037233;28;20172;-47
2021/07/07 01:08:16;;;;;;;1.05;0.80;;;;;;;;;;5037192;28;20172;-47
2021/07/07 01:10:43;;;;;;;2.10;0.82;;;;;;;;;;5037608;28;20199;-47
2021/07/07 01:13:09;;;;;;;1.05;0.80;;;;;;;;;;5036957;28;20497;-47
2021/07/07 01:15:36;;;;;;;0.70;0.70;;;;;;;;;;5036766;28;20301;-47
2021/07/07 01:18:02;;;;;;;1.10;0.85;;;;;;;;;;5037070;28;20172;-47
2021/07/07 01:20:29;;;;;;;1.00;0.70;;;;;;;;;;5037410;28;20544;-47
2021/07/07 01:22:58;;;;;;;0.75;0.68;;;;;;;;;;5037359;28;20168;-47
2021/07/07 01:25:24;;;;;;;0.70;0.70;;;;;;;;;;5037232;28;20451;-47
2021/07/07 01:27:50;;;;;;;0.77;0.73;;;;;;;;;;5034969;28;20183;-47
2021/07/07 01:30:18;;;;;;;1.63;0.80;;;;;;;;;;5036959;28;20585;-47
2021/07/07 01:32:45;;;;;;;1.10;1.00;;;;;;;;;;5037530;28;20164;-47
2021/07/07 01:35:11;;;;;;;0.90;0.80;;;;;;;;;;5036713;28;20195;-47
2021/07/07 01:37:37;;;;;;;0.85;0.85;;;;;;;;;;5035905;28;20225;-47
2021/07/07 01:40:04;;;;;;;0.90;0.90;;;;;;;;;;5037215;28;20209;-48
2021/07/07 01:42:30;;;;;;;1.55;0.88;;;;;;;;;;5036638;28;20208;-48
2021/07/07 01:44:56;;;;;;;1.00;0.90;;;;;;;;;;5025904;28;20188;-47
2021/07/07 01:47:23;;;;;;;0.70;0.70;;;;;;;;;;5036507;28;20179;-47
2021/07/07 01:49:49;;;;;;;1.10;0.85;;;;;;;;;;5037050;28;20578;-47
2021/07/07 01:52:15;;;;;;;0.85;0.82;;;;;;;;;;5036713;28;20302;-47
2021/07/07 01:54:41;;;;;;;0.75;0.60;;;;;;;;;;5035743;28;20226;-46
2021/07/07 01:57:07;;;;;;;0.90;0.90;;;;;;;;;;5032161;28;20177;-46
2021/07/07 01:59:33;;;;;;;0.70;0.70;;;;;;;;;;5026880;28;20188;-47
2021/07/07 02:02:00;;;;;;;1.50;0.80;;;;;;;;;;5036503;28;20200;-47
2021/07/07 02:04:26;;;;;;;1.15;0.68;;;;;;;;;;5036396;28;20267;-47
2021/07/07 02:06:52;;;;;;;1.27;0.82;;;;;;;;;;5036018;28;20179;-47
2021/07/07 02:09:19;;;;;;;2.80;0.70;;;;;;;;;;5036649;28;20191;-47
2021/07/07 02:11:46;;;;;;;1.60;0.82;;;;;;;;;;5024401;28;20176;-47
2021/07/07 02:14:12;;;;;;;1.08;0.63;;;;;;;;;;5033087;28;20467;-47
2021/07/07 02:16:38;;;;;;;0.95;0.70;;;;;;;;;;5036162;28;20601;-47
2021/07/07 02:19:04;;;;;;;0.63;0.60;;;;;;;;;;5036085;28;20172;-47
2021/07/07 02:21:30;;;;;;;0.70;0.70;;;;;;;;;;5036799;28;20943;-47
2021/07/07 02:23:57;;;;;;;4.68;0.60;;;;;;;;;;5033216;28;20227;-47
2021/07/07 02:26:23;;;;;;;1.70;0.70;;;;;;;;;;5021661;28;20172;-47
2021/07/07 02:28:49;;;;;;;0.90;0.60;;;;;;;;;;5035323;28;20172;-47
2021/07/07 02:31:15;;;;;;;1.95;0.80;;;;;;;;;;5036073;28;20241;-47
2021/07/07 02:33:41;;;;;;;0.60;0.60;;;;;;;;;;5035766;28;20180;-47
2021/07/07 02:36:08;;;;;;;2.47;1.08;;;;;;;;;;5035973;28;20270;-47
2021/07/07 02:38:34;;;;;;;0.93;0.90;;;;;;;;;;5035482;28;20176;-47
2021/07/07 02:41:00;;;;;;;0.95;0.90;;;;;;;;;;5035936;28;20172;-47
2021/07/07 02:43:26;;;;;;;2.10;1.00;;;;;;;;;;5035462;28;20204;-47
2021/07/07 02:45:52;;;;;;;2.80;0.73;;;;;;;;;;5030909;28;20546;-47
2021/07/07 02:48:19;;;;;;;1.77;0.90;;;;;;;;;;5035598;28;20207;-47
2021/07/07 02:50:46;;;;;;;1.88;0.98;;;;;;;;;;5032861;28;20179;-47
2021/07/07 02:53:12;;;;;;;1.05;1.02;;;;;;;;;;5023357;28;20195;-47
2021/07/07 02:55:39;;;;;;;2.13;1.00;;;;;;;;;;5035715;28;20211;-46
2021/07/07 02:58:05;;;;;;;2.03;0.80;;;;;;;;;;5034769;28;20278;-46
2021/07/07 03:00:36;;;;;;;1.52;0.90;;;;;;;;;;5035222;28;20202;-46
2021/07/07 03:03:06;;;;;;;1.13;0.90;;;;;;;;;;5035288;28;20160;-46
2021/07/07 03:05:33;;;;;;;1.67;0.82;;;;;;;;;;5034686;28;20188;-46
2021/07/07 03:07:59;;;;;;;0.80;0.80;;;;;;;;;;5034934;28;20626;-46
2021/07/07 03:10:25;;;;;;;1.27;0.98;;;;;;;;;;5035516;28;20215;-47
2021/07/07 03:12:51;;;;;;;0.85;0.80;;;;;;;;;;5034946;28;20175;-47
2021/07/07 03:15:17;;;;;;;1.05;0.75;;;;;;;;;;5034219;28;20203;-52
2021/07/07 03:17:43;;;;;;;1.45;0.60;;;;;;;;;;5033912;28;20639;-47
2021/07/07 03:20:10;;;;;;;1.23;0.80;;;;;;;;;;5035065;28;20241;-47
2021/07/07 03:22:36;;;;;;;0.77;0.77;;;;;;;;;;5038863;28;20184;-47
2021/07/07 03:25:03;;;;;;;2.92;0.77;;;;;;;;;;5034578;28;20464;-47
2021/07/07 03:27:29;;;;;;;1.30;0.80;;;;;;;;;;5034495;28;20622;-47
2021/07/07 03:29:55;;;;;;;1.33;0.82;;;;;;;;;;5034114;28;20191;-47
2021/07/07 03:32:21;;;;;;;0.77;0.65;;;;;;;;;;5034648;28;20212;-47
2021/07/07 03:34:47;;;;;;;2.20;0.90;;;;;;;;;;5027334;28;20208;-47
2021/07/07 03:37:13;;;;;;;2.20;0.70;;;;;;;;;;5014838;28;20178;-47
2021/07/07 03:39:39;;;;;;;1.48;0.70;;;;;;;;;;5024566;28;20186;-47
2021/07/07 03:42:05;;;;;;;0.60;0.60;;;;;;;;;;5034992;28;20279;-47
2021/07/07 03:44:32;;;;;;;1.38;0.75;;;;;;;;;;5032408;28;20179;-47
2021/07/07 03:46:58;;;;;;;1.00;0.70;;;;;;;;;;5030409;28;20183;-47
2021/07/07 03:49:24;;;;;;;1.58;0.90;;;;;;;;;;5034902;28;20176;-47
2021/07/07 03:51:50;;;;;;;1.70;1.10;;;;;;;;;;5034070;28;20225;-47
2021/07/07 03:54:16;;;;;;;3.35;1.80;;;;;;;;;;5034359;28;20282;-47
2021/07/07 03:56:42;;;;;;;3.85;1.70;;;;;;;;;;5033701;28;20172;-47
2021/07/07 03:59:08;;;;;;;6.47;2.20;;;;;;;;;;5033032;28;20459;-47
2021/07/07 04:01:34;;;;;;;6.75;2.28;;;;;;;;;;5034363;28;20234;-47
2021/07/07 04:04:00;;;;;;;7.13;2.60;;;;;;;;;;5034428;28;20179;-47
2021/07/07 04:06:26;;;;;;;10.52;2.28;;;;;;;;;;5033985;28;20187;-47
2021/07/07 04:08:52;;;;;;;9.73;2.83;;;;;;;;;;5034338;28;20176;-47
2021/07/07 04:11:18;;;;;;;12.85;2.72;;;;;;;;;;5033387;28;20452;-47
2021/07/07 04:13:44;;;;;;;11.15;3.45;;;;;;;;;;5032637;28;20184;-47
2021/07/07 04:16:10;;;;;;;9.63;2.88;;;;;;;;;;5032763;28;20281;-47
2021/07/07 04:18:36;;;;;;;14.73;3.45;;;;;;;;;;5032975;28;20172;-47
2021/07/07 04:21:02;;;;;;;14.77;3.85;;;;;;;;;;5033491;28;20566;-47
2021/07/07 04:23:28;;;;;;;10.18;3.50;;;;;;;;;;5033527;28;20176;-47
2021/07/07 04:25:54;;;;;;;11.77;3.67;;;;;;;;;;5024722;28;20178;-47
2021/07/07 04:28:20;;;;;;;11.63;3.85;;;;;;;;;;5033557;28;20238;-47
2021/07/07 04:30:46;;;;;;;14.75;3.40;;;;;;;;;;5034233;28;20175;-47
2021/07/07 04:33:12;;;;;;;11.35;3.45;;;;;;;;;;5034322;28;20458;-47
2021/07/07 04:35:38;;;;;;;13.05;3.30;;;;;;;;;;5021625;28;20211;-47
2021/07/07 04:38:04;;;;;;;7.15;2.70;;;;;;;;;;5014268;28;20171;-47
2021/07/07 04:40:31;;;;;;;9.27;3.22;;;;;;;;;;5032405;28;20194;-47
2021/07/07 04:42:57;;;;;;;10.07;2.72;;;;;;;;;;5033182;28;20469;-47
2021/07/07 04:45:23;;;;;;;6.60;2.60;;;;;;;;;;5033895;28;20188;-47
2021/07/07 04:47:49;;;;;;;7.82;2.65;;;;;;;;;;5033750;28;20417;-47
2021/07/07 04:50:17;;;;;;;8.73;2.72;;;;;;;;;;5034103;28;20167;-46
2021/07/07 04:52:43;;;;;;;5.93;2.70;;;;;;;;;;5032879;28;20206;-46
2021/07/07 04:55:10;;;;;;;7.72;2.67;;;;;;;;;;5033674;28;20886;-46
2021/07/07 04:57:42;;;;;;;8.25;2.38;;;;;;;;;;5032720;28;20561;-47
2021/07/07 05:00:10;;;;;;;4.10;2.08;;;;;;;;;;5032769;28;20172;-47
2021/07/07 05:02:36;;;;;;;5.18;2.15;;;;;;;;;;5032824;28;20180;-47
2021/07/07 05:05:02;;;;;;;6.57;2.25;;;;;;;;;;5033447;28;20194;-47
2021/07/07 05:07:28;;;;;;;5.15;2.55;;;;;;;;;;5033436;28;20225;-47
2021/07/07 05:09:54;;;;;;;4.68;2.38;;;;;;;;;;5033288;28;20231;-47
2021/07/07 05:12:20;;;;;;;4.90;2.10;;;;;;;;;;5033722;28;20180;-47
2021/07/07 05:14:46;;;;;;;3.65;2.20;;;;;;;;;;5032894;28;20475;-47
2021/07/07 05:17:13;;;;;;;6.30;1.92;;;;;;;;;;5033108;28;20226;-47
2021/07/07 05:19:39;;;;;;;2.83;1.80;;;;;;;;;;5033681;28;20515;-47
2021/07/07 05:22:05;;;;;;;6.18;1.95;;;;;;;;;;5033809;28;20439;-47
2021/07/07 05:24:31;;;;;;;5.43;1.80;;;;;;;;;;5033616;28;20539;-47
2021/07/07 05:26:57;;;;;;;2.53;1.40;;;;;;;;;;5033095;28;20235;-47
2021/07/07 05:29:23;;;;;;;1.80;1.48;;;;;;;;;;5027844;28;20199;-47
2021/07/07 05:31:52;;;;;;;3.65;1.60;;;;;;;;;;5036968;28;20183;-47
2021/07/07 05:34:18;;;;;;;2.22;1.40;;;;;;;;;;5035115;28;20188;-47
2021/07/07 05:36:44;;;;;;;3.95;1.60;;;;;;;;;;5017738;28;20172;-47
2021/07/07 05:39:10;;;;;;;3.78;1.23;;;;;;;;;;5017467;28;20767;-47
2021/07/07 05:41:36;;;;;;;1.83;1.30;;;;;;;;;;5036480;28;20171;-47
2021/07/07 05:44:02;;;;;;;3.95;1.20;;;;;;;;;;5035765;28;20183;-47
2021/07/07 05:46:28;;;;;;;3.10;1.65;;;;;;;;;;5036457;28;20179;-47
2021/07/07 05:48:54;;;;;;;3.35;1.48;;;;;;;;;;5037075;28;20270;-47
2021/07/07 05:51:20;;;;;;;2.75;1.42;;;;;;;;;;5025330;28;20261;-47
2021/07/07 05:53:46;;;;;;;3.30;1.60;;;;;;;;;;5035800;28;20259;-47
2021/07/07 05:56:12;;;;;;;2.08;1.52;;;;;;;;;;5036770;28;20172;-48
2021/07/07 05:58:39;;;;;;;2.47;1.35;;;;;;;;;;5036735;28;20215;-47
2021/07/07 06:01:05;;;;;;;2.00;1.30;;;;;;;;;;5036345;28;20178;-47
2021/07/07 06:03:31;;;;;;;1.20;1.10;;;;;;;;;;5022173;28;20219;-47
2021/07/07 06:05:57;;;;;;;3.35;1.13;;;;;;;;;;5036628;28;20175;-47
2021/07/07 06:08:23;;;;;;;4.68;1.02;;;;;;;;;;5036515;28;20601;-47
2021/07/07 06:10:49;;;;;;;2.33;1.25;;;;;;;;;;5036871;28;20172;-47
2021/07/07 06:13:15;;;;;;;2.17;1.10;;;;;;;;;;5036431;28;20229;-47
2021/07/07 06:15:41;;;;;;;1.05;1.00;;;;;;;;;;5031842;28;20476;-47
2021/07/07 06:18:07;;;;;;;2.55;0.90;;;;;;;;;;5036275;28;20188;-47
2021/07/07 06:20:33;;;;;;;2.30;1.20;;;;;;;;;;5036445;28;20542;-47
2021/07/07 06:23:00;;;;;;;2.45;1.27;;;;;;;;;;5036053;28;20172;-47
2021/07/07 06:25:26;;;;;;;1.60;1.05;;;;;;;;;;5036647;28;20249;-47
2021/07/07 06:27:52;;;;;;;2.20;1.10;;;;;;;;;;5035654;28;20187;-47
2021/07/07 06:30:19;;;;;;;2.58;1.20;;;;;;;;;;5034931;28;20180;-47
2021/07/07 06:32:46;;;;;;;3.08;1.00;;;;;;;;;;5036111;28;20182;-47
2021/07/07 06:35:12;;;;;;;1.67;1.00;;;;;;;;;;5036118;28;20482;-47
2021/07/07 06:37:38;;;;;;;2.05;0.98;;;;;;;;;;5033767;28;20212;-47
2021/07/07 06:40:05;;;;;;;2.90;1.10;;;;;;;;;;5035746;28;20294;-46
2021/07/07 06:42:32;;;;;;;3.08;1.10;;;;;;;;;;5035647;28;20172;-47
2021/07/07 06:44:58;;;;;;;0.95;0.93;;;;;;;;;;5035630;28;20210;-47
2021/07/07 06:47:24;;;;;;;2.67;1.20;;;;;;;;;;5034712;28;20218;-46
2021/07/07 06:49:50;;;;;;;1.40;0.90;;;;;;;;;;5034909;28;20176;-47
2021/07/07 06:52:17;;;;;;;1.38;1.10;;;;;;;;;;5033464;28;20196;-47
2021/07/07 06:54:44;;;;;;;2.33;1.10;;;;;;;;;;5025973;28;20215;-47
2021/07/07 06:57:10;;;;;;;2.15;0.93;;;;;;;;;;5027393;28;20491;-47
2021/07/07 06:59:36;;;;;;;1.80;1.10;;;;;;;;;;5035454;28;20207;-47
2021/07/07 07:02:04;;;;;;;1.42;1.17;;;;;;;;;;5033720;28;20440;-47
2021/07/07 07:04:30;;;;;;;1.98;0.90;;;;;;;;;;5034962;28;20177;-47
2021/07/07 07:06:57;;;;;;;3.25;1.10;;;;;;;;;;5034396;28;20180;-47
2021/07/07 07:09:23;;;;;;;4.00;1.20;;;;;;;;;;5033910;28;20175;-47
2021/07/07 07:11:49;;;;;;;1.40;1.00;;;;;;;;;;5034789;28;20262;-47
2021/07/07 07:14:16;;;;;;;1.95;1.05;;;;;;;;;;5033551;28;20599;-47
2021/07/07 07:16:42;;;;;;;1.95;1.10;;;;;;;;;;5024655;28;20189;-47
2021/07/07 07:19:09;;;;;;;1.20;1.10;;;;;;;;;;5030303;28;20176;-47
2021/07/07 07:21:35;;;;;;;2.08;0.98;;;;;;;;;;5034839;28;20234;-47
2021/07/07 07:24:01;;;;;;;1.65;0.98;;;;;;;;;;5034816;28;20176;-47
2021/07/07 07:26:28;;;;;;;2.15;0.98;;;;;;;;;;5034799;28;20183;-47
2021/07/07 07:28:55;;;;;;;1.25;1.10;;;;;;;;;;5034501;28;20203;-47
2021/07/07 07:31:21;;;;;;;3.95;0.90;;;;;;;;;;5034927;28;20188;-47
2021/07/07 07:33:47;;;;;;;1.50;1.10;;;;;;;;;;5033269;28;20233;-47
2021/07/07 07:36:13;;;;;;;0.85;0.82;;;;;;;;;;5034135;28;20183;-47
2021/07/07 07:38:42;;;;;;;2.08;0.80;;;;;;;;;;5034611;28;20258;-47
2021/07/07 07:41:08;;;;;;;1.60;1.08;;;;;;;;;;5024319;28;20259;-47
2021/07/07 07:43:34;;;;;;;1.33;0.90;;;;;;;;;;5028208;28;20197;-47
2021/07/07 07:46:00;;;;;;;1.35;0.90;;;;;;;;;;5033065;28;20207;-47
2021/07/07 07:48:27;;;;;;;0.82;0.80;;;;;;;;;;5033073;28;20266;-47
2021/07/07 07:50:54;;;;;;;1.30;0.90;;;;;;;;;;5034197;28;20171;-47
2021/07/07 07:53:20;;;;;;;1.45;1.02;;;;;;;;;;5032332;28;20207;-47
2021/07/07 07:55:47;;;;;;;1.70;0.95;;;;;;;;;;5033545;28;20203;-47
2021/07/07 07:58:19;;;;;;;0.95;0.90;;;;;;;;;;5034709;28;20168;-47
2021/07/07 08:00:49;;;;;;;1.88;0.90;;;;;;;;;;5034331;28;20164;-47
2021/07/07 08:03:15;;;;;;;1.73;0.90;;;;;;;;;;5034309;28;20176;-47
2021/07/07 08:05:42;;;;;;;1.23;0.82;;;;;;;;;;5033303;28;20567;-48
2021/07/07 08:08:08;;;;;;;1.52;0.88;;;;;;;;;;5032606;28;20180;-47
2021/07/07 08:10:34;;;;;;;1.48;0.90;;;;;;;;;;5034437;28;20167;-47
2021/07/07 08:13:00;;;;;;;1.33;0.90;;;;;;;;;;5034278;28;20192;-47
2021/07/07 08:15:27;;;;;;;4.28;1.05;;;;;;;;;;5033993;28;20223;-47
2021/07/07 08:17:54;;;;;;;1.95;1.13;;;;;;;;;;5034052;28;20229;-47
2021/07/07 08:20:20;;;;;;;1.00;0.82;;;;;;;;;;5031579;28;20258;-47
2021/07/07 08:22:47;;;;;;;1.63;1.20;;;;;;;;;;5034167;28;20176;-47
2021/07/07 08:25:13;;;;;;;1.40;0.90;;;;;;;;;;5033465;28;20191;-47
2021/07/07 08:27:40;;;;;;;2.28;0.90;;;;;;;;;;5032348;28;20447;-48
2021/07/07 08:30:07;;;;;;;1.35;0.90;;;;;;;;;;5033361;28;20172;-48
2021/07/07 08:32:33;;;;;;;4.05;0.98;;;;;;;;;;5033965;28;20188;-47
2021/07/07 08:34:59;;;;;;;1.02;0.93;;;;;;;;;;5033246;28;20199;-48
2021/07/07 08:37:25;;;;;;;1.10;1.00;;;;;;;;;;5031563;28;20623;-47
2021/07/07 08:39:51;;;;;;;0.90;0.90;;;;;;;;;;5034081;28;20250;-47
2021/07/07 08:42:17;;;;;;;0.82;0.82;;;;;;;;;;5033893;28;20184;-47
2021/07/07 08:44:44;;;;;;;4.57;0.90;;;;;;;;;;5024946;28;20275;-47
2021/07/07 08:47:10;;;;;;;1.98;1.00;;;;;;;;;;5033386;28;20187;-47
2021/07/07 08:49:37;;;;;;;2.05;0.90;;;;;;;;;;5034164;28;20245;-47
2021/07/07 08:52:03;;;;;;;1.23;0.88;;;;;;;;;;5033399;28;20199;-47
2021/07/07 08:54:31;;;;;;;2.22;0.80;;;;;;;;;;5033608;28;20254;-47
2021/07/07 08:57:04;;;;;;;1.27;1.00;;;;;;;;;;5033006;28;20255;-47
2021/07/07 08:59:30;;;;;;;3.65;1.10;;;;;;;;;;5022679;28;20271;-48
2021/07/07 09:02:03;;;;;;;7.60;1.10;;;;;;;;;;5033432;28;20268;-48
2021/07/07 09:04:40;;;;;;;2.30;1.33;;;;;;;;;;5034085;28;20455;-48
2021/07/07 09:07:06;;;;;;;4.55;1.38;;;;;;;;;;5035909;28;20262;-47
2021/07/07 09:09:35;;;;;;;6.03;1.00;;;;;;;;;;5036956;28;20250;-47
2021/07/07 09:12:01;;;;;;;2.80;1.00;;;;;;;;;;5032501;28;20191;-47
2021/07/07 09:14:32;;;;;;;2.50;1.02;;;;;;;;;;5037238;28;20519;-47
2021/07/07 09:17:00;;;;;;;2.80;1.05;;;;;;;;;;5036747;28;20172;-47
2021/07/07 09:19:27;;;;;;;3.47;0.95;;;;;;;;;;5037000;28;20200;-47
2021/07/07 09:21:55;;;;;;;1.85;0.98;;;;;;;;;;5036920;28;20187;-47
2021/07/07 09:24:24;;;;;;;4.55;1.20;;;;;;;;;;5028584;28;20499;-47
2021/07/07 09:27:11;;;;;;;1.77;0.90;;;;;;;;;;5036376;28;20211;-47
2021/07/07 09:29:39;;;;;;;2.40;0.95;;;;;;;;;;5037546;28;20172;-47
2021/07/07 09:32:12;;;;;;;1.25;0.98;;;;;;;;;;5030684;28;20183;-48
2021/07/07 09:34:39;;;;;;;3.15;0.98;;;;;;;;;;5035999;28;20238;-48
2021/07/07 09:37:07;;;;;;;1.50;0.93;;;;;;;;;;5036004;28;20187;-48
2021/07/07 09:39:33;;;;;;;3.70;1.23;;;;;;;;;;5028023;28;20180;-47
2021/07/07 09:41:59;;;;;;;3.20;1.08;;;;;;;;;;5035595;28;20191;-47
2021/07/07 09:44:25;;;;;;;4.95;1.30;;;;;;;;;;5036888;28;20172;-47
2021/07/07 09:46:51;;;;;;;3.13;1.20;;;;;;;;;;5036498;28;20250;-48
2021/07/07 09:49:18;;;;;;;4.47;1.00;;;;;;;;;;5035319;28;20187;-48
2021/07/07 09:51:50;;;;;;;2.22;1.00;;;;;;;;;;5036302;28;20200;-48
2021/07/07 09:54:16;;;;;;;1.98;1.00;;;;;;;;;;5037004;28;20192;-48
2021/07/07 09:56:42;;;;;;;7.07;1.50;;;;;;;;;;5035077;28;20187;-48
2021/07/07 09:59:09;;;;;;;3.00;1.25;;;;;;;;;;5036798;28;20172;-48
2021/07/07 10:01:35;;;;;;;2.92;1.30;;;;;;;;;;5037049;28;20174;-47
2021/07/07 10:04:01;;;;;;;2.92;1.15;;;;;;;;;;5036640;28;20176;-47
2021/07/07 10:06:27;;;;;;;2.40;1.20;;;;;;;;;;5036202;28;20183;-47
2021/07/07 10:08:53;;;;;;;2.03;1.17;;;;;;;;;;5036753;28;20163;-47
2021/07/07 10:11:20;;;;;;;2.72;1.00;;;;;;;;;;5026331;28;20179;-47
2021/07/07 10:13:46;;;;;;;2.30;1.10;;;;;;;;;;5028725;28;20176;-47
2021/07/07 10:16:16;;;;;;;2.85;1.00;;;;;;;;;;5035239;28;20188;-47
2021/07/07 10:18:42;;;;;;;2.47;1.25;;;;;;;;;;5036133;28;20482;-48
2021/07/07 10:21:08;;;;;;;2.67;1.25;;;;;;;;;;5036012;28;20176;-48
2021/07/07 10:23:38;;;;;;;2.13;0.95;;;;;;;;;;5033843;28;20184;-47
2021/07/07 10:26:05;;;;;;;1.83;1.08;;;;;;;;;;5036020;28;20172;-47
2021/07/07 10:28:31;;;;;;;1.20;0.80;;;;;;;;;;5036276;28;20175;-47
2021/07/07 10:30:59;;;;;;;1.23;0.90;;;;;;;;;;5035865;28;20175;-47
2021/07/07 10:33:31;;;;;;;2.08;1.00;;;;;;;;;;5036155;28;20417;-47
2021/07/07 10:36:14;;;;;;;5.30;1.00;;;;;;;;;;5035489;28;20216;-47
2021/07/07 10:38:40;;;;;;;3.58;1.20;;;;;;;;;;5033353;28;20597;-47
2021/07/07 10:41:06;;;;;;;3.38;1.17;;;;;;;;;;5035885;28;20183;-47
2021/07/07 10:43:45;;;;;;;3.05;1.08;;;;;;;;;;5035966;28;20195;-47
2021/07/07 10:46:12;;;;;;;1.10;0.90;;;;;;;;;;5035220;28;20621;-47
2021/07/07 10:48:38;;;;;;;4.13;0.90;;;;;;;;;;5035947;28;20172;-47
2021/07/07 10:51:10;;;;;;;1.83;1.05;;;;;;;;;;5034852;28;20176;-47
2021/07/07 10:53:36;;;;;;;0.82;0.57;;;;;;;;;;5032817;28;20184;-47
2021/07/07 10:56:04;;;;;;;1.88;1.02;;;;;;;;;;5034508;28;20208;-47
2021/07/07 10:58:35;;;;;;;2.03;1.00;;;;;;;;;;5031710;28;20560;-48
2021/07/07 11:01:01;;;;;;;3.38;0.90;;;;;;;;;;5020128;28;20176;-48
2021/07/07 11:03:32;;;;;;;2.70;1.02;;;;;;;;;;5034876;28;20182;-47
2021/07/07 11:06:21;;;;;;;1.80;1.00;;;;;;;;;;5034602;28;20195;-47
2021/07/07 11:08:48;;;;;;;1.48;0.70;;;;;;;;;;5033089;28;20204;-47
2021/07/07 11:11:24;;;;;;;3.25;1.10;;;;;;;;;;5034712;28;20214;-47
2021/07/07 11:13:51;;;;;;;1.02;0.90;;;;;;;;;;5034531;28;20183;-47
2021/07/07 11:16:24;;;;;;;2.53;1.02;;;;;;;;;;5021773;28;20197;-47
2021/07/07 11:18:51;;;;;;;2.00;0.90;;;;;;;;;;5019415;28;20179;-47
2021/07/07 11:21:18;;;;;;;1.75;0.95;;;;;;;;;;5034565;28;20172;-47
2021/07/07 11:23:44;;;;;;;2.83;0.90;;;;;;;;;;5034226;28;20180;-47
2021/07/07 11:26:11;;;;;;;1.20;1.00;;;;;;;;;;5034792;28;20243;-47
2021/07/07 11:28:37;;;;;;;3.13;1.17;;;;;;;;;;5035195;28;20562;-47
2021/07/07 11:31:03;;;;;;;1.15;1.00;;;;;;;;;;5035047;28;20174;-47
2021/07/07 11:33:29;;;;;;;2.30;1.10;;;;;;;;;;5034741;28;20191;-47
2021/07/07 11:35:55;;;;;;;1.65;0.70;;;;;;;;;;5034477;28;20263;-47
2021/07/07 11:38:24;;;;;;;0.77;0.60;;;;;;;;;;5033963;28;20199;-47
2021/07/07 11:40:52;;;;;;;1.50;0.73;;;;;;;;;;5035007;28;20168;-47
2021/07/07 11:43:24;;;;;;;2.22;0.80;;;;;;;;;;5034740;28;20179;-47
2021/07/07 11:46:00;;;;;;;1.83;0.95;;;;;;;;;;5033799;28;20167;-47
2021/07/07 11:48:32;;;;;;;3.88;1.05;;;;;;;;;;5034712;28;20180;-47
2021/07/07 11:51:03;;;;;;;2.00;1.10;;;;;;;;;;5027922;28;20172;-47
2021/07/07 11:53:37;;;;;;;1.58;1.05;;;;;;;;;;5030829;28;20188;-47
2021/07/07 11:56:05;;;;;;;1.38;0.90;;;;;;;;;;5014508;28;20285;-47
2021/07/07 11:58:36;;;;;;;3.05;1.10;;;;;;;;;;5014774;28;20228;-47
2021/07/07 12:01:04;;;;;;;1.10;0.95;;;;;;;;;;5029835;28;20198;-47
2021/07/07 12:03:30;;;;;;;0.85;0.85;;;;;;;;;;5034262;28;20670;-47
2021/07/07 12:05:57;;;;;;;3.97;0.90;;;;;;;;;;5025217;28;20179;-47
2021/07/07 12:08:27;;;;;;;2.20;1.00;;;;;;;;;;5034282;28;20211;-47
2021/07/07 12:11:02;;;;;;;1.52;0.90;;;;;;;;;;5032824;28;20258;-47
2021/07/07 12:13:30;;;;;;;1.52;0.98;;;;;;;;;;5034339;28;20221;-47
2021/07/07 12:16:14;;;;;;;2.97;1.10;;;;;;;;;;5032456;28;20607;-47
2021/07/07 12:18:42;;;;;;;0.90;0.90;;;;;;;;;;5032639;28;20215;-47
2021/07/07 12:21:08;;;;;;;2.15;0.90;;;;;;;;;;5033751;28;20555;-47
2021/07/07 12:23:44;;;;;;;1.67;1.00;;;;;;;;;;5033760;28;20176;-47
2021/07/07 12:26:11;;;;;;;3.38;1.38;;;;;;;;;;5038285;28;20249;-47
2021/07/07 12:28:37;;;;;;;1.95;0.90;;;;;;;;;;5034278;28;20171;-47
2021/07/07 12:31:03;;;;;;;1.33;1.20;;;;;;;;;;5032860;28;20573;-47
2021/07/07 12:33:29;;;;;;;2.42;1.02;;;;;;;;;;5033838;28;20171;-47
2021/07/07 12:35:55;;;;;;;2.28;1.13;;;;;;;;;;5033669;28;20206;-47
2021/07/07 12:38:21;;;;;;;2.95;1.45;;;;;;;;;;5035090;28;20172;-47
2021/07/07 12:40:54;;;;;;;1.67;1.00;;;;;;;;;;5037988;28;20237;-47
2021/07/07 12:43:27;;;;;;;1.48;0.88;;;;;;;;;;5037809;28;20184;-47
2021/07/07 12:46:03;;;;;;;1.27;1.02;;;;;;;;;;5035848;28;20639;-47
2021/07/07 12:48:29;;;;;;;1.90;0.80;;;;;;;;;;5037965;28;20186;-47
2021/07/07 12:50:55;;;;;;;1.15;1.05;;;;;;;;;;5037659;28;20176;-47
2021/07/07 12:53:34;;;;;;;1.65;1.05;;;;;;;;;;5018229;28;20558;-47
2021/07/07 12:56:08;;;;;;;0.90;0.90;;;;;;;;;;5017892;28;20257;-47
2021/07/07 12:58:34;;;;;;;1.35;1.10;;;;;;;;;;5018648;28;20204;-47
2021/07/07 13:01:00;;;;;;;2.10;1.30;;;;;;;;;;5018044;28;20208;-47
2021/07/07 13:03:35;;;;;;;3.05;1.10;;;;;;;;;;5018259;28;20169;-47
2021/07/07 13:06:03;;;;;;;1.80;1.10;;;;;;;;;;5020460;28;20262;-47
2021/07/07 13:08:45;;;;;;;1.20;0.90;;;;;;;;;;5036568;28;20176;-47
2021/07/07 13:11:18;;;;;;;1.88;1.15;;;;;;;;;;5023838;28;20179;-47
2021/07/07 13:13:44;;;;;;;1.65;0.90;;;;;;;;;;5037266;28;20191;-47
2021/07/07 13:16:14;;;;;;;1.83;1.00;;;;;;;;;;5036923;28;20273;-47
2021/07/07 13:18:57;;;;;;;1.15;1.05;;;;;;;;;;5037295;28;20180;-48
2021/07/07 13:21:34;;;;;;;0.95;0.93;;;;;;;;;;5035918;28;20186;-48
2021/07/07 13:24:00;;;;;;;3.42;1.02;;;;;;;;;;5028219;28;20176;-48
2021/07/07 13:26:27;;;;;;;1.13;1.00;;;;;;;;;;5037248;28;20164;-48
2021/07/07 13:29:13;;;;;;;1.05;1.02;;;;;;;;;;5036935;28;20253;-48
2021/07/07 13:31:39;;;;;;;1.10;1.00;;;;;;;;;;5037402;28;20175;-48
2021/07/07 13:34:05;;;;;;;1.17;1.00;;;;;;;;;;5032108;28;20176;-48
2021/07/07 13:36:35;;;;;;;1.10;1.00;;;;;;;;;;5036811;28;20174;-48
2021/07/07 13:39:08;;;;;;;1.10;0.90;;;;;;;;;;5037017;28;20280;-48
2021/07/07 13:41:34;;;;;;;1.20;1.00;;;;;;;;;;5036110;28;20184;-48
2021/07/07 13:44:00;;;;;;;1.15;1.00;;;;;;;;;;5035860;28;20176;-48
2021/07/07 13:46:26;;;;;;;1.65;0.90;;;;;;;;;;5035772;28;20203;-48
2021/07/07 13:48:52;;;;;;;1.55;1.27;;;;;;;;;;5035644;28;20215;-48
2021/07/07 13:51:18;;;;;;;1.45;1.00;;;;;;;;;;5034850;28;20172;-48
2021/07/07 13:53:44;;;;;;;2.08;1.02;;;;;;;;;;5035793;28;20182;-48
2021/07/07 13:56:10;;;;;;;1.00;1.00;;;;;;;;;;5035929;28;20607;-48
2021/07/07 13:58:36;;;;;;;1.33;1.10;;;;;;;;;;5035687;28;20218;-48
2021/07/07 14:01:02;;;;;;;1.73;1.00;;;;;;;;;;5028719;28;20180;-48
2021/07/07 14:03:28;;;;;;;1.88;0.90;;;;;;;;;;5036325;28;20271;-48
2021/07/07 14:05:56;;;;;;;3.13;1.27;;;;;;;;;;5035790;28;20266;-48
2021/07/07 14:08:22;;;;;;;3.00;1.20;;;;;;;;;;5036370;28;20178;-48
2021/07/07 14:10:49;;;;;;;2.67;0.90;;;;;;;;;;5030272;28;20179;-48
2021/07/07 14:13:15;;;;;;;2.97;1.17;;;;;;;;;;5036105;28;20215;-48
2021/07/07 14:15:41;;;;;;;5.18;1.40;;;;;;;;;;5036337;28;20203;-48
2021/07/07 14:18:07;;;;;;;2.67;1.10;;;;;;;;;;5035934;28;20182;-48
2021/07/07 14:20:33;;;;;;;1.20;1.10;;;;;;;;;;5035979;28;20278;-48
2021/07/07 14:22:59;;;;;;;1.00;1.00;;;;;;;;;;5028286;28;20590;-48
2021/07/07 14:25:25;;;;;;;1.45;1.00;;;;;;;;;;5035117;28;20202;-48
2021/07/07 14:27:52;;;;;;;1.02;0.90;;;;;;;;;;5035601;28;20198;-48
2021/07/07 14:30:18;;;;;;;0.90;0.90;;;;;;;;;;5036024;28;20175;-48
2021/07/07 14:32:46;;;;;;;0.90;0.80;;;;;;;;;;5036413;28;20600;-48
2021/07/07 14:35:12;;;;;;;0.90;0.90;;;;;;;;;;5035600;28;20203;-48
2021/07/07 14:37:38;;;;;;;4.63;1.10;;;;;;;;;;5035176;28;20301;-48
2021/07/07 14:40:05;;;;;;;0.82;0.82;;;;;;;;;;5035925;28;20183;-48
2021/07/07 14:42:31;;;;;;;3.13;0.88;;;;;;;;;;5035085;28;20175;-48